createdAt,value
2017-04-07T00:00:09.853Z,924.56
2017-04-07T00:01:23.119Z,924.54
2017-04-07T00:02:36.352Z,924.61
2017-04-07T00:03:49.598Z,924.63
2017-04-07T00:05:02.842Z,924.6
2017-04-07T00:06:16.069Z,924.66
2017-04-07T00:07:29.320Z,924.62
2017-04-07T00:08:42.052Z,924.65
2017-04-07T00:09:55.332Z,924.66
2017-04-07T00:11:08.054Z,924.6
2017-04-07T00:12:21.303Z,924.65
2017-04-07T00:13:34.547Z,924.59
2017-04-07T00:14:47.775Z,924.6
2017-04-07T00:16:01.044Z,924.55
2017-04-07T00:17:13.801Z,924.59
2017-04-07T00:18:27.033Z,924.57
2017-04-07T00:19:40.296Z,924.54
2017-04-07T00:20:53.011Z,924.5
2017-04-07T00:22:06.270Z,924.5
2017-04-07T00:23:19.006Z,924.53
2017-04-07T00:24:32.232Z,924.54
2017-04-07T00:25:45.461Z,924.54
2017-04-07T00:26:58.798Z,924.5
2017-04-07T00:28:12.151Z,924.54
2017-04-07T00:29:25.435Z,924.51
2017-04-07T00:30:38.698Z,924.5
2017-04-07T00:31:51.985Z,924.53
2017-04-07T00:33:05.228Z,924.61
2017-04-07T00:34:17.977Z,924.66
2017-04-07T00:35:30.745Z,924.69
2017-04-07T00:36:44.015Z,924.69
2017-04-07T00:37:57.279Z,924.66
2017-04-07T00:39:10.038Z,924.75
2017-04-07T00:40:23.283Z,924.81
2017-04-07T00:41:36.573Z,924.83
2017-04-07T00:42:49.858Z,924.91
2017-04-07T00:44:03.136Z,924.95
2017-04-07T00:45:15.890Z,924.97
2017-04-07T00:46:28.656Z,925.04
2017-04-07T00:47:41.907Z,925.02
2017-04-07T00:48:55.137Z,925.04
2017-04-07T00:50:08.405Z,925.03
2017-04-07T00:51:21.689Z,925.04
2017-04-07T00:52:34.978Z,925.09
2017-04-07T00:53:48.230Z,925.09
2017-04-07T00:55:00.962Z,925.1
2017-04-07T00:56:14.232Z,925.13
2017-04-07T00:57:27.471Z,925.17
2017-04-07T00:58:40.221Z,925.2
2017-04-07T00:59:53.465Z,925.24
2017-04-07T01:01:06.699Z,925.18
2017-04-07T01:02:19.995Z,925.17
2017-04-07T01:03:33.224Z,925.21
2017-04-07T01:04:46.452Z,925.13
2017-04-07T01:05:59.700Z,925.17
2017-04-07T01:07:12.918Z,925.16
2017-04-07T01:08:26.154Z,925.17
2017-04-07T01:09:38.880Z,925.09
2017-04-07T01:10:52.121Z,924.95
2017-04-07T01:12:05.377Z,925.07
2017-04-07T01:13:18.623Z,925.12
2017-04-07T01:14:31.879Z,925.16
2017-04-07T01:15:45.163Z,925.18
2017-04-07T01:16:58.426Z,925.19
2017-04-07T01:18:10.659Z,925.25
2017-04-07T01:19:23.900Z,925.23
2017-04-07T01:20:37.144Z,925.23
2017-04-07T01:21:50.396Z,925.34
2017-04-07T01:23:03.651Z,925.56
2017-04-07T01:24:16.928Z,925.73
2017-04-07T01:25:30.183Z,925.92
2017-04-07T01:26:42.894Z,925.96
2017-04-07T01:27:56.173Z,926
2017-04-07T01:29:09.434Z,925.92
2017-04-07T01:30:22.661Z,925.86
2017-04-07T01:31:35.933Z,925.72
2017-04-07T01:32:49.163Z,925.68
2017-04-07T01:34:02.421Z,925.69
2017-04-07T01:35:15.698Z,925.76
2017-04-07T01:36:28.912Z,925.81
2017-04-07T01:37:42.260Z,925.82
2017-04-07T01:38:54.996Z,925.76
2017-04-07T01:40:08.224Z,925.71
2017-04-07T01:41:21.473Z,925.62
2017-04-07T01:42:34.696Z,925.6
2017-04-07T01:43:47.932Z,925.59
2017-04-07T01:45:01.174Z,925.51
2017-04-07T01:46:14.410Z,925.49
2017-04-07T01:47:27.721Z,925.49
2017-04-07T01:48:40.974Z,925.49
2017-04-07T01:49:54.236Z,925.5
2017-04-07T01:51:06.970Z,925.6
2017-04-07T01:52:20.214Z,925.62
2017-04-07T01:53:33.421Z,925.7
2017-04-07T01:54:46.188Z,925.76
2017-04-07T01:55:59.489Z,925.83
2017-04-07T01:57:12.744Z,925.79
2017-04-07T01:58:26.007Z,925.81
2017-04-07T01:59:39.254Z,925.71
2017-04-07T02:00:52.491Z,925.79
2017-04-07T02:02:05.744Z,925.77
2017-04-07T02:03:19.029Z,925.77
2017-04-07T02:04:32.316Z,925.78
2017-04-07T02:05:45.036Z,925.84
2017-04-07T02:06:57.794Z,925.74
2017-04-07T02:08:11.081Z,925.73
2017-04-07T02:09:24.373Z,925.72
2017-04-07T02:10:37.104Z,925.71
2017-04-07T02:11:49.829Z,925.7
2017-04-07T02:13:02.063Z,925.79
2017-04-07T02:14:15.302Z,925.76
2017-04-07T02:15:28.020Z,925.7
2017-04-07T02:16:41.269Z,925.73
2017-04-07T02:17:54.502Z,925.74
2017-04-07T02:19:07.723Z,925.68
2017-04-07T02:20:20.985Z,925.66
2017-04-07T02:21:34.265Z,925.57
2017-04-07T02:22:47.521Z,925.68
2017-04-07T02:24:00.736Z,925.61
2017-04-07T02:25:14.009Z,925.68
2017-04-07T02:26:27.284Z,925.66
2017-04-07T02:27:40.543Z,925.73
2017-04-07T02:28:53.287Z,925.73
2017-04-07T02:30:06.025Z,925.8
2017-04-07T02:31:18.787Z,925.79
2017-04-07T02:32:31.535Z,925.85
2017-04-07T02:33:44.827Z,925.82
2017-04-07T02:34:58.090Z,925.83
2017-04-07T02:36:10.832Z,925.83
2017-04-07T02:37:24.110Z,925.78
2017-04-07T02:38:37.375Z,925.76
2017-04-07T02:39:50.670Z,925.73
2017-04-07T02:41:03.966Z,925.69
2017-04-07T02:42:17.211Z,925.68
2017-04-07T02:43:30.447Z,925.63
2017-04-07T02:44:43.713Z,925.66
2017-04-07T02:45:56.968Z,925.67
2017-04-07T02:47:10.228Z,925.69
2017-04-07T02:48:22.979Z,925.72
2017-04-07T02:49:36.205Z,925.72
2017-04-07T02:50:49.494Z,925.7
2017-04-07T02:52:02.752Z,925.74
2017-04-07T02:53:16.025Z,925.75
2017-04-07T02:54:28.754Z,925.76
2017-04-07T02:55:41.994Z,925.73
2017-04-07T02:56:55.249Z,925.75
2017-04-07T02:58:08.015Z,925.75
2017-04-07T02:59:21.288Z,925.78
2017-04-07T03:00:34.528Z,925.77
2017-04-07T03:01:47.276Z,925.81
2017-04-07T03:03:00.573Z,925.81
2017-04-07T03:04:13.840Z,925.79
2017-04-07T03:05:27.134Z,925.76
2017-04-07T03:06:40.376Z,925.73
2017-04-07T03:07:53.657Z,925.68
2017-04-07T03:09:06.446Z,925.68
2017-04-07T03:10:19.170Z,925.62
2017-04-07T03:11:32.429Z,925.62
2017-04-07T03:12:45.688Z,925.64
2017-04-07T03:13:58.999Z,925.61
2017-04-07T03:15:12.251Z,925.6
2017-04-07T03:16:25.512Z,925.58
2017-04-07T03:17:38.250Z,925.61
2017-04-07T03:18:51.546Z,925.61
2017-04-07T03:20:04.808Z,925.59
2017-04-07T03:21:17.554Z,925.58
2017-04-07T03:22:30.844Z,925.54
2017-04-07T03:23:44.100Z,925.54
2017-04-07T03:24:57.348Z,925.48
2017-04-07T03:26:10.101Z,925.45
2017-04-07T03:27:23.379Z,925.43
2017-04-07T03:28:36.633Z,925.39
2017-04-07T03:29:49.406Z,925.32
2017-04-07T03:31:02.704Z,925.27
2017-04-07T03:32:15.957Z,925.26
2017-04-07T03:33:28.708Z,925.19
2017-04-07T03:34:41.981Z,925.19
2017-04-07T03:35:55.206Z,925.11
2017-04-07T03:37:07.944Z,925.14
2017-04-07T03:38:21.219Z,925.09
2017-04-07T03:39:33.951Z,925.11
2017-04-07T03:40:47.225Z,925.11
2017-04-07T03:42:00.510Z,925.14
2017-04-07T03:43:13.246Z,925.09
2017-04-07T03:44:25.977Z,925.13
2017-04-07T03:45:39.210Z,925.19
2017-04-07T03:46:52.438Z,925.22
2017-04-07T03:48:05.795Z,925.2
2017-04-07T03:49:19.110Z,925.22
2017-04-07T03:50:32.350Z,925.23
2017-04-07T03:51:45.128Z,925.23
2017-04-07T03:52:58.483Z,925.2
2017-04-07T03:54:11.752Z,925.22
2017-04-07T03:55:24.986Z,925.17
2017-04-07T03:56:38.239Z,925.15
2017-04-07T03:57:51.508Z,925.13
2017-04-07T03:59:04.759Z,925.13
2017-04-07T04:00:18.024Z,925.14
2017-04-07T04:01:31.267Z,925.08
2017-04-07T04:02:44.520Z,925.03
2017-04-07T04:03:57.806Z,925
2017-04-07T04:05:11.087Z,925.03
2017-04-07T04:06:24.371Z,925
2017-04-07T04:07:37.630Z,925.01
2017-04-07T04:08:50.879Z,924.98
2017-04-07T04:10:04.173Z,925
2017-04-07T04:11:17.458Z,925.03
2017-04-07T04:12:30.706Z,925.04
2017-04-07T04:13:43.464Z,925.06
2017-04-07T04:14:56.191Z,925.05
2017-04-07T04:16:09.420Z,925.08
2017-04-07T04:17:22.627Z,925.04
2017-04-07T04:18:35.890Z,925.02
2017-04-07T04:19:49.170Z,925.03
2017-04-07T04:21:02.407Z,925.02
2017-04-07T04:22:15.663Z,925
2017-04-07T04:23:28.933Z,925.05
2017-04-07T04:24:42.163Z,925.05
2017-04-07T04:25:55.454Z,925.03
2017-04-07T04:27:08.730Z,925.03
2017-04-07T04:28:21.966Z,924.99
2017-04-07T04:29:35.224Z,924.97
2017-04-07T04:30:48.467Z,924.89
2017-04-07T04:32:01.702Z,924.88
2017-04-07T04:33:14.943Z,924.84
2017-04-07T04:34:28.173Z,924.78
2017-04-07T04:35:41.449Z,924.82
2017-04-07T04:36:54.711Z,924.87
2017-04-07T04:38:07.422Z,924.88
2017-04-07T04:39:20.177Z,924.91
2017-04-07T04:40:32.950Z,924.94
2017-04-07T04:41:46.175Z,924.94
2017-04-07T04:42:59.465Z,924.92
2017-04-07T04:44:12.691Z,924.85
2017-04-07T04:45:25.442Z,924.77
2017-04-07T04:46:38.690Z,924.67
2017-04-07T04:47:51.953Z,924.55
2017-04-07T04:49:05.309Z,924.51
2017-04-07T04:50:18.570Z,924.57
2017-04-07T04:51:31.779Z,924.6
2017-04-07T04:52:44.996Z,924.63
2017-04-07T04:53:57.733Z,924.67
2017-04-07T04:55:11.014Z,924.68
2017-04-07T04:56:23.716Z,924.69
2017-04-07T04:57:36.989Z,924.65
2017-04-07T04:58:50.240Z,924.64
2017-04-07T05:00:03.494Z,924.6
2017-04-07T05:01:16.218Z,924.58
2017-04-07T05:02:29.471Z,924.55
2017-04-07T05:03:42.721Z,924.54
2017-04-07T05:04:55.974Z,924.57
2017-04-07T05:06:09.231Z,924.58
2017-04-07T05:07:22.485Z,924.63
2017-04-07T05:08:35.756Z,924.66
2017-04-07T05:09:48.994Z,924.67
2017-04-07T05:11:02.247Z,924.68
2017-04-07T05:12:14.988Z,924.7
2017-04-07T05:13:27.702Z,924.66
2017-04-07T05:14:40.418Z,924.63
2017-04-07T05:15:53.157Z,924.56
2017-04-07T05:17:05.877Z,924.52
2017-04-07T05:18:19.171Z,924.45
2017-04-07T05:19:32.626Z,924.41
2017-04-07T05:20:45.893Z,924.42
2017-04-07T05:21:59.153Z,924.4
2017-04-07T05:23:12.404Z,924.44
2017-04-07T05:24:25.622Z,924.49
2017-04-07T05:25:38.861Z,924.5
2017-04-07T05:26:52.113Z,924.48
2017-04-07T05:28:04.861Z,924.57
2017-04-07T05:29:18.097Z,924.51
2017-04-07T05:30:31.348Z,924.5
2017-04-07T05:31:44.621Z,924.45
2017-04-07T05:32:57.371Z,924.42
2017-04-07T05:34:10.636Z,924.41
2017-04-07T05:35:23.843Z,924.39
2017-04-07T05:36:37.117Z,924.39
2017-04-07T05:37:50.393Z,924.35
2017-04-07T05:39:03.666Z,924.33
2017-04-07T05:40:16.913Z,924.28
2017-04-07T05:41:30.165Z,924.3
2017-04-07T05:42:43.444Z,924.23
2017-04-07T05:43:56.710Z,924.21
2017-04-07T05:45:09.974Z,924.06
2017-04-07T05:46:23.256Z,924.08
2017-04-07T05:47:36.541Z,924.03
2017-04-07T05:48:49.761Z,923.97
2017-04-07T05:50:03.038Z,923.95
2017-04-07T05:51:16.361Z,923.99
2017-04-07T05:52:29.619Z,924.02
2017-04-07T05:53:42.834Z,924.04
2017-04-07T05:54:56.086Z,924.04
2017-04-07T05:56:09.371Z,924.09
2017-04-07T05:57:22.612Z,924.06
2017-04-07T05:58:35.828Z,924.07
2017-04-07T05:59:49.063Z,924.08
2017-04-07T06:01:01.800Z,924.11
2017-04-07T06:02:15.062Z,924.1
2017-04-07T06:03:28.298Z,924.09
2017-04-07T06:04:41.564Z,924.13
2017-04-07T06:05:54.843Z,924.14
2017-04-07T06:07:08.100Z,924.13
2017-04-07T06:08:21.357Z,924.08
2017-04-07T06:09:34.611Z,924.09
2017-04-07T06:10:47.844Z,924.07
2017-04-07T06:12:00.550Z,924.01
2017-04-07T06:13:13.322Z,924
2017-04-07T06:14:26.597Z,923.96
2017-04-07T06:15:39.844Z,923.98
2017-04-07T06:16:53.100Z,923.95
2017-04-07T06:18:06.368Z,923.99
2017-04-07T06:19:19.624Z,924
2017-04-07T06:20:32.868Z,923.98
2017-04-07T06:21:45.586Z,923.94
2017-04-07T06:22:58.332Z,923.91
2017-04-07T06:24:11.595Z,923.84
2017-04-07T06:25:24.833Z,923.87
2017-04-07T06:26:38.112Z,923.8
2017-04-07T06:27:50.841Z,923.81
2017-04-07T06:29:04.095Z,923.82
2017-04-07T06:30:17.369Z,923.82
2017-04-07T06:31:30.662Z,923.81
2017-04-07T06:32:43.404Z,923.75
2017-04-07T06:33:56.666Z,923.77
2017-04-07T06:35:09.898Z,923.74
2017-04-07T06:36:23.168Z,923.78
2017-04-07T06:37:36.459Z,923.77
2017-04-07T06:38:49.730Z,923.81
2017-04-07T06:40:02.478Z,923.82
2017-04-07T06:41:15.225Z,923.83
2017-04-07T06:42:28.480Z,923.85
2017-04-07T06:43:41.211Z,923.84
2017-04-07T06:44:54.460Z,923.87
2017-04-07T06:46:06.671Z,923.9
2017-04-07T06:47:19.923Z,923.93
2017-04-07T06:48:33.170Z,923.92
2017-04-07T06:49:46.407Z,923.97
2017-04-07T06:50:59.677Z,923.94
2017-04-07T06:52:12.908Z,923.97
2017-04-07T06:53:25.658Z,923.98
2017-04-07T06:54:38.916Z,924
2017-04-07T06:55:52.159Z,924.01
2017-04-07T06:57:05.383Z,924.04
2017-04-07T06:58:18.604Z,924.09
2017-04-07T06:59:31.824Z,924.07
2017-04-07T07:00:45.093Z,924.1
2017-04-07T07:01:58.373Z,924.09
2017-04-07T07:03:11.630Z,924.1
2017-04-07T07:04:24.892Z,924.07
2017-04-07T07:05:38.126Z,924.06
2017-04-07T07:06:50.848Z,924.14
2017-04-07T07:08:03.624Z,924.09
2017-04-07T07:09:16.864Z,924.08
2017-04-07T07:10:30.125Z,924.05
2017-04-07T07:11:42.880Z,924.01
2017-04-07T07:12:56.103Z,924.02
2017-04-07T07:14:09.350Z,923.99
2017-04-07T07:15:22.654Z,923.96
2017-04-07T07:16:35.383Z,923.97
2017-04-07T07:17:48.607Z,923.99
2017-04-07T07:19:01.345Z,923.97
2017-04-07T07:20:14.628Z,923.96
2017-04-07T07:21:27.878Z,923.96
2017-04-07T07:22:40.620Z,923.9
2017-04-07T07:23:53.865Z,923.87
2017-04-07T07:25:07.091Z,923.88
2017-04-07T07:26:20.323Z,923.89
2017-04-07T07:27:33.549Z,923.84
2017-04-07T07:28:46.805Z,923.91
2017-04-07T07:29:59.562Z,923.93
2017-04-07T07:31:12.262Z,923.91
2017-04-07T07:32:25.500Z,923.91
2017-04-07T07:33:38.218Z,923.91
2017-04-07T07:34:51.448Z,923.9
2017-04-07T07:36:04.667Z,923.95
2017-04-07T07:37:17.911Z,923.96
2017-04-07T07:38:30.673Z,924.04
2017-04-07T07:39:43.948Z,924.12
2017-04-07T07:40:57.223Z,924.22
2017-04-07T07:42:10.959Z,924.24
2017-04-07T07:43:24.209Z,924.29
2017-04-07T07:44:36.892Z,924.35
2017-04-07T07:45:49.664Z,924.39
2017-04-07T07:47:02.890Z,924.38
2017-04-07T07:48:16.140Z,924.38
2017-04-07T07:49:28.886Z,924.43
2017-04-07T07:50:41.606Z,924.45
2017-04-07T07:51:54.853Z,924.44
2017-04-07T07:53:08.131Z,924.5
2017-04-07T07:54:21.387Z,924.55
2017-04-07T07:55:34.621Z,924.57
2017-04-07T07:56:47.914Z,924.59
2017-04-07T07:58:00.665Z,924.57
2017-04-07T07:59:13.937Z,924.58
2017-04-07T08:00:27.197Z,924.59
2017-04-07T08:01:40.482Z,924.61
2017-04-07T08:02:53.260Z,924.61
2017-04-07T08:04:06.492Z,924.6
2017-04-07T08:05:19.234Z,924.65
2017-04-07T08:06:32.485Z,924.64
2017-04-07T08:07:45.178Z,924.66
2017-04-07T08:08:58.417Z,924.67
2017-04-07T08:10:11.662Z,924.68
2017-04-07T08:11:24.417Z,924.71
2017-04-07T08:12:37.720Z,924.73
2017-04-07T08:13:50.978Z,924.73
2017-04-07T08:15:04.211Z,924.73
2017-04-07T08:16:17.480Z,924.78
2017-04-07T08:17:30.718Z,924.73
2017-04-07T08:18:43.968Z,924.77
2017-04-07T08:19:57.204Z,924.74
2017-04-07T08:21:08.895Z,924.8
2017-04-07T08:22:21.660Z,924.78
2017-04-07T08:23:34.878Z,924.76
2017-04-07T08:24:48.117Z,924.77
2017-04-07T08:26:01.381Z,924.78
2017-04-07T08:27:13.605Z,924.8
2017-04-07T08:28:26.860Z,924.78
2017-04-07T08:29:40.120Z,924.8
2017-04-07T08:30:53.378Z,924.79
2017-04-07T08:32:06.615Z,924.79
2017-04-07T08:33:18.819Z,924.78
2017-04-07T08:34:32.063Z,924.76
2017-04-07T08:35:45.283Z,924.73
2017-04-07T08:36:58.536Z,924.77
2017-04-07T08:38:11.814Z,924.76
2017-04-07T08:39:25.108Z,924.77
2017-04-07T08:40:37.862Z,924.78
2017-04-07T08:41:51.083Z,924.8
2017-04-07T08:43:04.338Z,924.81
2017-04-07T08:44:17.586Z,924.82
2017-04-07T08:45:30.888Z,924.87
2017-04-07T08:46:43.114Z,924.91
2017-04-07T08:47:56.375Z,924.91
2017-04-07T08:49:09.584Z,924.91
2017-04-07T08:50:22.821Z,924.94
2017-04-07T08:51:36.079Z,924.93
2017-04-07T08:52:48.808Z,925
2017-04-07T08:54:01.583Z,925
2017-04-07T08:55:13.812Z,925.02
2017-04-07T08:56:27.041Z,925.07
2017-04-07T08:57:40.341Z,925.09
2017-04-07T08:58:53.574Z,925.11
2017-04-07T09:00:06.294Z,925.08
2017-04-07T09:01:19.020Z,925.09
2017-04-07T09:02:32.237Z,925.08
2017-04-07T09:03:45.469Z,925.09
2017-04-07T09:04:57.678Z,925.11
2017-04-07T09:06:10.943Z,925.14
2017-04-07T09:07:23.731Z,925.14
2017-04-07T09:08:36.945Z,925.18
2017-04-07T09:09:50.184Z,925.18
2017-04-07T09:11:03.448Z,925.22
2017-04-07T09:12:16.164Z,925.19
2017-04-07T09:13:29.428Z,925.24
2017-04-07T09:14:42.144Z,925.28
2017-04-07T09:15:55.361Z,925.31
2017-04-07T09:17:08.604Z,925.29
2017-04-07T09:18:21.857Z,925.3
2017-04-07T09:19:35.106Z,925.31
2017-04-07T09:20:48.370Z,925.33
2017-04-07T09:22:01.143Z,925.39
2017-04-07T09:23:14.434Z,925.35
2017-04-07T09:24:27.138Z,925.42
2017-04-07T09:25:39.888Z,925.44
2017-04-07T09:26:53.116Z,925.45
2017-04-07T09:28:06.368Z,925.48
2017-04-07T09:29:19.618Z,925.49
2017-04-07T09:30:32.885Z,925.5
2017-04-07T09:31:45.659Z,925.56
2017-04-07T09:32:58.942Z,925.57
2017-04-07T09:34:12.212Z,925.57
2017-04-07T09:35:25.474Z,925.56
2017-04-07T09:36:38.237Z,925.54
2017-04-07T09:37:51.469Z,925.57
2017-04-07T09:39:04.189Z,925.59
2017-04-07T09:40:17.432Z,925.55
2017-04-07T09:41:30.692Z,925.6
2017-04-07T09:42:43.954Z,925.61
2017-04-07T09:43:57.219Z,925.64
2017-04-07T09:45:10.168Z,925.67
2017-04-07T09:46:23.471Z,925.71
2017-04-07T09:47:36.179Z,925.75
2017-04-07T09:48:48.921Z,925.76
2017-04-07T09:50:02.203Z,925.79
2017-04-07T09:51:15.484Z,925.77
2017-04-07T09:52:28.742Z,925.83
2017-04-07T09:53:42.002Z,925.79
2017-04-07T09:54:55.244Z,925.81
2017-04-07T09:56:08.518Z,925.79
2017-04-07T09:57:20.712Z,925.77
2017-04-07T09:58:33.450Z,925.75
2017-04-07T09:59:46.692Z,925.78
2017-04-07T10:00:59.938Z,925.82
2017-04-07T10:02:13.209Z,925.81
2017-04-07T10:03:26.482Z,925.84
2017-04-07T10:04:39.745Z,925.88
2017-04-07T10:05:52.990Z,925.88
2017-04-07T10:07:05.739Z,925.92
2017-04-07T10:08:18.488Z,925.93
2017-04-07T10:09:31.217Z,925.94
2017-04-07T10:10:43.975Z,925.93
2017-04-07T10:11:56.751Z,925.93
2017-04-07T10:13:10.048Z,925.95
2017-04-07T10:14:22.765Z,925.98
2017-04-07T10:15:35.507Z,926.04
2017-04-07T10:16:47.709Z,926.03
2017-04-07T10:18:00.469Z,926.01
2017-04-07T10:19:13.776Z,926.02
2017-04-07T10:20:26.513Z,926.04
2017-04-07T10:21:39.767Z,926.07
2017-04-07T10:22:53.130Z,926.06
2017-04-07T10:24:06.386Z,926.07
2017-04-07T10:25:19.654Z,926.07
2017-04-07T10:26:32.927Z,926.07
2017-04-07T10:27:46.170Z,926.09
2017-04-07T10:28:59.393Z,926.12
2017-04-07T10:30:12.664Z,926.09
2017-04-07T10:31:25.904Z,926.08
2017-04-07T10:32:39.137Z,926.07
2017-04-07T10:33:51.897Z,926.05
2017-04-07T10:35:05.141Z,926.09
2017-04-07T10:36:18.377Z,926.09
2017-04-07T10:37:31.628Z,926.1
2017-04-07T10:38:43.837Z,926.14
2017-04-07T10:39:57.070Z,926.19
2017-04-07T10:41:09.819Z,926.19
2017-04-07T10:42:23.093Z,926.24
2017-04-07T10:43:36.334Z,926.26
2017-04-07T10:44:49.604Z,926.27
2017-04-07T10:46:02.843Z,926.24
2017-04-07T10:47:16.094Z,926.27
2017-04-07T10:48:29.387Z,926.23
2017-04-07T10:49:42.133Z,926.3
2017-04-07T10:50:54.879Z,926.32
2017-04-07T10:52:08.137Z,926.33
2017-04-07T10:53:21.385Z,926.35
2017-04-07T10:54:34.609Z,926.33
2017-04-07T10:55:47.854Z,926.37
2017-04-07T10:57:00.657Z,926.39
2017-04-07T10:58:13.935Z,926.43
2017-04-07T10:59:27.182Z,926.42
2017-04-07T11:00:39.380Z,926.43
2017-04-07T11:01:51.587Z,926.41
2017-04-07T11:03:04.821Z,926.44
2017-04-07T11:04:18.085Z,926.5
2017-04-07T11:05:31.325Z,926.45
2017-04-07T11:06:44.567Z,926.47
2017-04-07T11:07:57.817Z,926.45
2017-04-07T11:09:11.073Z,926.5
2017-04-07T11:10:24.342Z,926.47
2017-04-07T11:11:37.589Z,926.5
2017-04-07T11:12:50.357Z,926.54
2017-04-07T11:14:03.624Z,926.54
2017-04-07T11:15:16.886Z,926.52
2017-04-07T11:16:30.130Z,926.57
2017-04-07T11:17:43.391Z,926.57
2017-04-07T11:18:56.636Z,926.62
2017-04-07T11:20:09.901Z,926.66
2017-04-07T11:21:23.171Z,926.66
2017-04-07T11:22:36.428Z,926.62
2017-04-07T11:23:49.705Z,926.69
2017-04-07T11:25:02.473Z,926.67
2017-04-07T11:26:15.204Z,926.71
2017-04-07T11:27:27.918Z,926.74
2017-04-07T11:28:41.148Z,926.75
2017-04-07T11:29:53.867Z,926.74
2017-04-07T11:31:07.112Z,926.8
2017-04-07T11:32:19.851Z,926.75
2017-04-07T11:33:32.577Z,926.79
2017-04-07T11:34:45.314Z,926.8
2017-04-07T11:35:58.085Z,926.82
2017-04-07T11:37:11.341Z,926.87
2017-04-07T11:38:23.581Z,926.86
2017-04-07T11:39:36.854Z,926.88
2017-04-07T11:40:50.121Z,926.88
2017-04-07T11:42:03.391Z,926.94
2017-04-07T11:43:16.137Z,926.94
2017-04-07T11:44:29.422Z,926.97
2017-04-07T11:45:42.981Z,926.94
2017-04-07T11:46:56.248Z,926.92
2017-04-07T11:48:09.495Z,926.89
2017-04-07T11:49:22.763Z,926.9
2017-04-07T11:50:35.986Z,926.91
2017-04-07T11:51:48.741Z,926.93
2017-04-07T11:53:01.458Z,926.94
2017-04-07T11:54:14.205Z,926.96
2017-04-07T11:55:27.491Z,926.99
2017-04-07T11:56:40.278Z,927
2017-04-07T11:57:53.539Z,927.06
2017-04-07T11:59:06.263Z,927.06
2017-04-07T12:00:19.044Z,927.08
2017-04-07T12:01:32.298Z,927.06
2017-04-07T12:02:45.547Z,927.09
2017-04-07T12:03:58.315Z,927.08
2017-04-07T12:05:11.059Z,927.1
2017-04-07T12:06:23.778Z,927.12
2017-04-07T12:07:37.061Z,927.14
2017-04-07T12:08:50.349Z,927.11
2017-04-07T12:10:03.613Z,927.11
2017-04-07T12:11:16.054Z,927.12
2017-04-07T12:12:29.701Z,927.09
2017-04-07T12:13:42.427Z,927.1
2017-04-07T12:14:55.630Z,927.09
2017-04-07T12:16:08.379Z,927.13
2017-04-07T12:17:21.638Z,927.17
2017-04-07T12:18:34.384Z,927.15
2017-04-07T12:19:47.818Z,927.2
2017-04-07T12:21:00.604Z,927.24
2017-04-07T12:22:13.908Z,927.21
2017-04-07T12:23:27.242Z,927.22
2017-04-07T12:24:40.487Z,927.2
2017-04-07T12:25:53.729Z,927.22
2017-04-07T12:27:07.048Z,927.17
2017-04-07T12:28:20.306Z,927.2
2017-04-07T12:29:33.578Z,927.23
2017-04-07T12:30:46.854Z,927.26
2017-04-07T12:31:59.616Z,927.25
2017-04-07T12:33:12.896Z,927.23
2017-04-07T12:34:26.555Z,927.24
2017-04-07T12:35:39.753Z,927.26
2017-04-07T12:36:52.514Z,927.21
2017-04-07T12:38:05.786Z,927.23
2017-04-07T12:39:18.552Z,927.22
2017-04-07T12:40:31.907Z,927.26
2017-04-07T12:41:44.683Z,927.28
2017-04-07T12:42:57.955Z,927.27
2017-04-07T12:44:11.217Z,927.29
2017-04-07T12:45:24.501Z,927.3
2017-04-07T12:46:37.778Z,927.27
2017-04-07T12:47:51.239Z,927.26
2017-04-07T12:49:04.518Z,927.25
2017-04-07T12:50:17.317Z,927.25
2017-04-07T12:51:30.279Z,927.28
2017-04-07T12:52:43.569Z,927.28
2017-04-07T12:53:56.840Z,927.27
2017-04-07T12:55:09.541Z,927.32
2017-04-07T12:56:22.278Z,927.32
2017-04-07T12:57:35.501Z,927.32
2017-04-07T12:58:48.743Z,927.35
2017-04-07T13:00:01.467Z,927.36
2017-04-07T13:01:14.271Z,927.32
2017-04-07T13:02:27.519Z,927.35
2017-04-07T13:03:40.753Z,927.35
2017-04-07T13:04:53.511Z,927.37
2017-04-07T13:06:06.797Z,927.33
2017-04-07T13:07:20.037Z,927.34
2017-04-07T13:08:33.292Z,927.3
2017-04-07T13:09:46.559Z,927.32
2017-04-07T13:10:59.283Z,927.34
2017-04-07T13:12:11.536Z,927.34
2017-04-07T13:13:24.290Z,927.34
2017-04-07T13:14:37.564Z,927.35
2017-04-07T13:15:50.311Z,927.38
2017-04-07T13:17:03.104Z,927.34
2017-04-07T13:18:16.379Z,927.35
2017-04-07T13:19:29.628Z,927.31
2017-04-07T13:20:42.902Z,927.32
2017-04-07T13:21:56.130Z,927.37
2017-04-07T13:23:09.425Z,927.35
2017-04-07T13:24:22.698Z,927.37
2017-04-07T13:25:36.454Z,927.37
2017-04-07T13:26:49.727Z,927.35
2017-04-07T13:28:02.999Z,927.37
2017-04-07T13:29:15.750Z,927.31
2017-04-07T13:30:28.497Z,927.33
2017-04-07T13:31:41.755Z,927.34
2017-04-07T13:32:55.011Z,927.35
2017-04-07T13:34:08.303Z,927.38
2017-04-07T13:35:21.595Z,927.37
2017-04-07T13:36:34.852Z,927.4
2017-04-07T13:37:47.593Z,927.37
2017-04-07T13:39:00.338Z,927.39
2017-04-07T13:40:13.082Z,927.36
2017-04-07T13:41:26.362Z,927.37
2017-04-07T13:42:39.587Z,927.33
2017-04-07T13:43:52.806Z,927.34
2017-04-07T13:45:06.054Z,927.31
2017-04-07T13:46:19.329Z,927.29
2017-04-07T13:47:32.099Z,927.31
2017-04-07T13:48:45.358Z,927.28
2017-04-07T13:49:58.099Z,927.25
2017-04-07T13:51:11.351Z,927.23
2017-04-07T13:52:24.077Z,927.22
2017-04-07T13:53:37.358Z,927.16
2017-04-07T13:54:50.654Z,927.2
2017-04-07T13:56:03.880Z,927.21
2017-04-07T13:57:17.125Z,927.22
2017-04-07T13:58:30.375Z,927.24
2017-04-07T13:59:43.617Z,927.28
2017-04-07T14:00:56.886Z,927.28
2017-04-07T14:02:09.637Z,927.3
2017-04-07T14:03:22.929Z,927.28
2017-04-07T14:04:35.677Z,927.24
2017-04-07T14:05:48.908Z,927.22
2017-04-07T14:07:02.158Z,927.23
2017-04-07T14:08:14.905Z,927.19
2017-04-07T14:09:28.165Z,927.2
2017-04-07T14:10:39.890Z,927.18
2017-04-07T14:11:53.133Z,927.17
2017-04-07T14:13:06.404Z,927.19
2017-04-07T14:14:19.678Z,927.16
2017-04-07T14:15:32.939Z,927.17
2017-04-07T14:16:46.230Z,927.14
2017-04-07T14:17:58.985Z,927.13
2017-04-07T14:19:11.732Z,927.12
2017-04-07T14:20:24.964Z,927.1
2017-04-07T14:21:38.229Z,927.04
2017-04-07T14:22:50.957Z,927.1
2017-04-07T14:24:03.721Z,927.07
2017-04-07T14:25:16.489Z,927.13
2017-04-07T14:26:29.735Z,927.11
2017-04-07T14:27:42.988Z,927.14
2017-04-07T14:28:55.725Z,927.19
2017-04-07T14:30:08.444Z,927.13
2017-04-07T14:31:21.725Z,927.13
2017-04-07T14:32:34.503Z,927.12
2017-04-07T14:33:47.792Z,927.12
2017-04-07T14:35:00.510Z,927.12
2017-04-07T14:36:13.784Z,927.09
2017-04-07T14:37:27.014Z,927.11
2017-04-07T14:38:40.270Z,927.13
2017-04-07T14:39:53.017Z,927.07
2017-04-07T14:41:05.799Z,927.02
2017-04-07T14:42:19.068Z,926.94
2017-04-07T14:43:31.805Z,926.93
2017-04-07T14:44:45.058Z,926.84
2017-04-07T14:45:57.806Z,926.81
2017-04-07T14:47:11.070Z,926.73
2017-04-07T14:48:24.348Z,926.75
2017-04-07T14:49:37.608Z,926.8
2017-04-07T14:50:50.883Z,926.82
2017-04-07T14:52:04.142Z,926.84
2017-04-07T14:53:17.452Z,926.84
2017-04-07T14:54:30.195Z,926.81
2017-04-07T14:55:43.445Z,926.79
2017-04-07T14:56:56.733Z,926.76
2017-04-07T14:58:09.512Z,926.8
2017-04-07T14:59:22.753Z,926.78
2017-04-07T15:00:36.007Z,926.77
2017-04-07T15:01:48.774Z,926.75
2017-04-07T15:03:02.039Z,926.72
2017-04-07T15:04:15.313Z,926.71
2017-04-07T15:05:28.570Z,926.71
2017-04-07T15:06:41.819Z,926.7
2017-04-07T15:07:55.053Z,926.7
2017-04-07T15:09:08.322Z,926.7
2017-04-07T15:10:21.605Z,926.65
2017-04-07T15:11:34.363Z,926.61
2017-04-07T15:12:47.100Z,926.57
2017-04-07T15:14:00.353Z,926.55
2017-04-07T15:15:13.110Z,926.54